»·PEaware :: N629J KAVX-KSAN

N629J :: KAVX-KSAN

FLIGHT INFORMATION

Flight Status: Arrived
Operator: Privately registered:
United States
More flights under this callsign
Pilot: Thiago S. (19132)
Aircraft: BEECH AIRCRAFT A90-E90 KING AIR
(BE9L)
More flights by this aircraft type
Origin: KAVX Catalina
United States
Destination: KSAN San Diego Intl-Lindbergh
United States
More flights between these airports :: More routes between these airports
Route: +CSTP54
File this flight plan on PilotEdge
Remarks: I RATING 8
Altitude:
(Current/Filed)
9,000ft
Speed:
(Current/Filed)
210kts
Departed: 20-Feb-19 07:04 PM
Arrived: 20-Feb-19 07:43 PM
Distance/Time
Traveled:
74nm/0:39
Distance/Time
To Go:
Arrived

Flight Plot

Page will automatically refresh every two minutes.

Flight plan parsing failed; only flown route is shown


Map Options




Map Legend


Flown Route
Filed Route
Departure Airport
Arrival Airport
Navaid (VOR, NDB)
Fix

Horizontal Profiles

Position Reports

Time Latitude Longitude Heading Altitude Ground
Speed
20-Feb-19 18:42 33.403677 -118.415570 136 1607ft 0kts
20-Feb-19 18:43 33.403677 -118.415570 136 1607ft 0kts
20-Feb-19 18:44 33.403677 -118.415570 136 1607ft 0kts
20-Feb-19 18:45 33.403677 -118.415570 136 1607ft 0kts
20-Feb-19 18:46 33.403677 -118.415570 136 1607ft 0kts
20-Feb-19 18:47 33.403677 -118.415570 136 1607ft 0kts
20-Feb-19 18:48 33.403677 -118.415570 136 1607ft 0kts
20-Feb-19 18:49 33.403677 -118.415570 136 1607ft 0kts
20-Feb-19 18:50 33.403677 -118.415570 136 1607ft 0kts
20-Feb-19 18:51 33.403676 -118.415569 136 1607ft 0kts
20-Feb-19 18:52 33.403674 -118.415567 136 1607ft 0kts
20-Feb-19 18:53 33.403673 -118.415565 136 1607ft 0kts
20-Feb-19 18:54 33.403671 -118.415563 136 1607ft 0kts
20-Feb-19 18:55 33.403670 -118.415561 136 1607ft 0kts
20-Feb-19 18:57 33.403495 -118.415816 246 1607ft 3kts
20-Feb-19 18:58 33.404026 -118.416681 52 1607ft 4kts
20-Feb-19 18:59 33.405004 -118.415052 55 1607ft 9kts
20-Feb-19 19:00 33.405943 -118.413472 55 1607ft 3kts
20-Feb-19 19:01 33.406714 -118.412173 54 1607ft 5kts
20-Feb-19 19:02 33.407128 -118.411481 53 1607ft 0kts
20-Feb-19 19:03 33.407453 -118.411691 238 1607ft 5kts
20-Feb-19 19:04 33.406493 -118.413375 233 1607ft 48kts
20-Feb-19 19:05 33.389604 -118.438488 234 2637ft 107kts
20-Feb-19 19:06 33.365494 -118.445190 99 3618ft 134kts
20-Feb-19 19:07 33.376313 -118.403100 112 4581ft 149kts
20-Feb-19 19:08 33.366008 -118.351203 99 5123ft 182kts
20-Feb-19 19:09 33.358246 -118.293383 99 6106ft 173kts
20-Feb-19 19:10 33.350688 -118.236303 99 7107ft 175kts
20-Feb-19 19:11 33.342921 -118.178227 98 8109ft 179kts
20-Feb-19 19:12 33.334512 -118.114240 99 8570ft 205kts
20-Feb-19 19:13 33.325306 -118.044923 98 8963ft 215kts
20-Feb-19 19:14 33.315847 -117.971416 99 8999ft 229kts
20-Feb-19 19:15 33.306303 -117.896209 99 9001ft 229kts
20-Feb-19 19:16 33.296508 -117.820625 99 9003ft 230kts
20-Feb-19 19:16 33.288526 -117.757480 99 9002ft 231kts
20-Feb-19 19:17 33.278807 -117.681846 99 9003ft 230kts
20-Feb-19 19:19 33.264283 -117.594685 118 9010ft 228kts
20-Feb-19 19:19 33.238165 -117.539897 124 9006ft 227kts
20-Feb-19 19:20 33.200556 -117.477373 134 8438ft 241kts
20-Feb-19 19:21 33.149480 -117.425155 154 7644ft 239kts
20-Feb-19 19:22 33.092245 -117.393959 165 7030ft 212kts
20-Feb-19 19:23 33.042399 -117.371556 160 6998ft 191kts
20-Feb-19 19:24 32.995758 -117.342861 138 6996ft 192kts
20-Feb-19 19:25 32.970940 -117.290990 121 7008ft 193kts
20-Feb-19 19:26 32.946550 -117.234161 121 7013ft 191kts
20-Feb-19 19:27 32.922413 -117.177924 121 7019ft 191kts
20-Feb-19 19:28 32.896028 -117.117179 121 6031ft 221kts
20-Feb-19 19:29 32.867342 -117.051906 121 5061ft 215kts
20-Feb-19 19:30 32.838332 -116.996408 140 5034ft 183kts
20-Feb-19 19:31 32.802151 -116.954710 141 5040ft 180kts
20-Feb-19 19:32 32.766058 -116.913299 141 5037ft 179kts
20-Feb-19 19:33 32.721974 -116.889297 171 4450ft 185kts
20-Feb-19 19:34 32.684268 -116.905802 265 3875ft 165kts
20-Feb-19 19:35 32.684534 -116.956422 267 3882ft 135kts
20-Feb-19 19:36 32.686697 -116.999703 285 3480ft 139kts
20-Feb-19 19:37 32.699040 -117.041792 279 2691ft 124kts
20-Feb-19 19:38 32.708328 -117.077594 282 2048ft 105kts
20-Feb-19 19:39 32.715751 -117.113756 281 1553ft 121kts
20-Feb-19 19:40 32.724841 -117.152455 284 811ft 117kts
20-Feb-19 19:41 32.732941 -117.186986 284 20ft 78kts
20-Feb-19 19:42 32.733992 -117.194918 166 20ft 8kts
20-Feb-19 19:43 32.733922 -117.194890 159 20ft 0kts
20-Feb-19 19:44 32.732852 -117.191066 106 20ft 15kts
20-Feb-19 19:45 32.731554 -117.185690 105 20ft 16kts
20-Feb-19 19:46 32.733016 -117.182813 105 20ft 12kts
20-Feb-19 19:47 32.731975 -117.178478 105 20ft 9kts
20-Feb-19 19:48 32.731783 -117.177686 106 20ft 2kts
20-Feb-19 19:49 32.732103 -117.176296 45 20ft 0kts
20-Feb-19 19:50 32.732184 -117.176385 194 20ft 0kts
20-Feb-19 19:51 32.732183 -117.176385 194 20ft 0kts

Navigation Log

Ident Type
Flight plan parsing failed, navigation log unavailable